Saint Marys, Indiana
Current Conditions -  °F | °C
As of 11:02 AM on Thursday 27 Nov 2014 (Local Time) from KSBN Reporting Station
Light Snow Light Snow  
Wind Chill: -5°   Ceiling: 600
Heat Index: -1°   Visibility: 1mi
Dew Point: -2°   Wind: 8mph
Humidity: 92%   Direction: 290°WNW
Pressure: 30.26"   Gusts: NA
Location:  41.7197°N, 86.2504°W
Report Text: KSBN 271602Z 29007KT 1SM R27L/3500VP6000FT -SN BR BKN006 OVC012 M01/M02 A3026 RMK AO2 P0000 T10061017
Loading
Personal Weather Stations






























Interactive Weather Map New forecast layout! Learn more

10-Day Weather Forecast

Advertisements
Track Severe Weather on mobile